sensor_id;sensor_type;location;lat;lon;timestamp;pressure;altitude;pressure_sealevel;temperature;humidity
23241;BME280;11789;53.482;9.862;2023-08-07T00:00:54;100562.72;;;14.63;100.00
23241;BME280;11789;53.482;9.862;2023-08-07T00:03:20;100565.38;;;14.61;100.00
23241;BME280;11789;53.482;9.862;2023-08-07T00:05:46;100564.47;;;14.62;100.00
23241;BME280;11789;53.482;9.862;2023-08-07T00:08:12;100561.06;;;14.59;100.00
23241;BME280;11789;53.482;9.862;2023-08-07T00:10:37;100558.53;;;14.57;100.00
23241;BME280;11789;53.482;9.862;2023-08-07T00:13:03;100563.72;;;14.57;100.00
23241;BME280;11789;53.482;9.862;2023-08-07T00:15:29;100556.81;;;14.56;100.00
23241;BME280;11789;53.482;9.862;2023-08-07T00:17:54;100549.97;;;14.52;100.00
23241;BME280;11789;53.482;9.862;2023-08-07T00:20:20;100549.16;;;14.48;100.00
23241;BME280;11789;53.482;9.862;2023-08-07T00:22:45;100548.31;;;14.48;100.00
23241;BME280;11789;53.482;9.862;2023-08-07T00:25:11;100543.16;;;14.45;100.00
23241;BME280;11789;53.482;9.862;2023-08-07T00:27:36;100544.12;;;14.41;100.00
23241;BME280;11789;53.482;9.862;2023-08-07T00:30:02;100548.47;;;14.39;100.00
23241;BME280;11789;53.482;9.862;2023-08-07T00:32:27;100552.06;;;14.35;100.00
23241;BME280;11789;53.482;9.862;2023-08-07T00:34:53;100553.81;;;14.33;100.00
23241;BME280;11789;53.482;9.862;2023-08-07T00:37:18;100552.97;;;14.32;100.00
23241;BME280;11789;53.482;9.862;2023-08-07T00:39:44;100558.22;;;14.29;100.00
23241;BME280;11789;53.482;9.862;2023-08-07T00:42:09;100550.44;;;14.27;100.00
23241;BME280;11789;53.482;9.862;2023-08-07T00:44:34;100552.25;;;14.25;100.00
23241;BME280;11789;53.482;9.862;2023-08-07T00:47:00;100549.66;;;14.24;100.00
23241;BME280;11789;53.482;9.862;2023-08-07T00:49:25;100554.03;;;14.22;100.00
23241;BME280;11789;53.482;9.862;2023-08-07T00:51:51;100560.13;;;14.21;100.00
23241;BME280;11789;53.482;9.862;2023-08-07T00:54:19;100559.28;;;14.20;100.00
23241;BME280;11789;53.482;9.862;2023-08-07T00:56:46;100557.50;;;14.22;100.00
23241;BME280;11789;53.482;9.862;2023-08-07T00:59:13;100560.97;;;14.21;100.00
23241;BME280;11789;53.482;9.862;2023-08-07T01:01:39;100562.78;;;14.19;100.00
23241;BME280;11789;53.482;9.862;2023-08-07T01:04:04;100561.03;;;14.18;100.00
23241;BME280;11789;53.482;9.862;2023-08-07T01:06:30;100566.22;;;14.18;100.00
23241;BME280;11789;53.482;9.862;2023-08-07T01:08:56;100556.78;;;14.16;100.00
23241;BME280;11789;53.482;9.862;2023-08-07T01:11:43;100553.28;;;14.17;100.00
23241;BME280;11789;53.482;9.862;2023-08-07T01:16:57;100555.06;;;14.13;100.00
23241;BME280;11789;53.482;9.862;2023-08-07T01:19:27;100558.53;;;14.14;100.00
23241;BME280;11789;53.482;9.862;2023-08-07T01:22:10;100549.00;;;14.14;100.00
23241;BME280;11789;53.482;9.862;2023-08-07T01:24:37;100550.75;;;14.12;100.00
23241;BME280;11789;53.482;9.862;2023-08-07T01:27:15;100548.25;;;14.09;100.00
23241;BME280;11789;53.482;9.862;2023-08-07T01:30:17;100550.00;;;14.07;100.00
23241;BME280;11789;53.482;9.862;2023-08-07T01:35:39;100537.91;;;14.06;100.00
23241;BME280;11789;53.482;9.862;2023-08-07T01:38:06;100539.66;;;14.06;100.00
23241;BME280;11789;53.482;9.862;2023-08-07T01:40:33;100534.50;;;14.02;100.00
23241;BME280;11789;53.482;9.862;2023-08-07T01:43:00;100536.31;;;13.99;100.00
23241;BME280;11789;53.482;9.862;2023-08-07T01:45:27;100531.97;;;13.98;100.00
23241;BME280;11789;53.482;9.862;2023-08-07T01:47:53;100536.34;;;13.97;100.00
23241;BME280;11789;53.482;9.862;2023-08-07T01:50:20;100530.28;;;13.97;100.00
23241;BME280;11789;53.482;9.862;2023-08-07T01:52:46;100526.78;;;13.98;100.00
23241;BME280;11789;53.482;9.862;2023-08-07T01:55:19;100522.53;;;13.95;100.00
23241;BME280;11789;53.482;9.862;2023-08-07T01:57:45;100520.75;;;13.97;100.00
23241;BME280;11789;53.482;9.862;2023-08-07T02:00:11;100522.47;;;13.97;100.00
23241;BME280;11789;53.482;9.862;2023-08-07T02:02:37;100529.38;;;13.98;100.00
23241;BME280;11789;53.482;9.862;2023-08-07T02:05:03;100532.84;;;14.00;100.00
23241;BME280;11789;53.482;9.862;2023-08-07T02:07:29;100525.94;;;13.99;100.00
23241;BME280;11789;53.482;9.862;2023-08-07T02:09:55;100525.94;;;13.97;100.00
23241;BME280;11789;53.482;9.862;2023-08-07T02:12:20;100537.19;;;13.98;100.00
23241;BME280;11789;53.482;9.862;2023-08-07T02:14:46;100526.78;;;13.98;100.00
23241;BME280;11789;53.482;9.862;2023-08-07T02:17:11;100520.75;;;13.97;100.00
23241;BME280;11789;53.482;9.862;2023-08-07T02:19:37;100518.19;;;13.96;100.00
23241;BME280;11789;53.482;9.862;2023-08-07T02:22:02;100512.13;;;13.95;100.00
23241;BME280;11789;53.482;9.862;2023-08-07T02:24:32;100520.78;;;13.96;100.00
23241;BME280;11789;53.482;9.862;2023-08-07T02:26:58;100522.56;;;13.94;100.00
23241;BME280;11789;53.482;9.862;2023-08-07T02:29:23;100513.12;;;13.90;100.00
23241;BME280;11789;53.482;9.862;2023-08-07T02:31:48;100523.50;;;13.90;100.00
23241;BME280;11789;53.482;9.862;2023-08-07T02:34:14;100527.84;;;13.89;100.00
23241;BME280;11789;53.482;9.862;2023-08-07T02:36:39;100513.16;;;13.87;100.00
23241;BME280;11789;53.482;9.862;2023-08-07T02:39:06;100512.34;;;13.85;100.00
23241;BME280;11789;53.482;9.862;2023-08-07T02:41:32;100514.94;;;13.83;100.00
23241;BME280;11789;53.482;9.862;2023-08-07T02:43:57;100520.19;;;13.82;100.00
23241;BME280;11789;53.482;9.862;2023-08-07T02:46:23;100521.97;;;13.80;100.00
23241;BME280;11789;53.482;9.862;2023-08-07T02:48:48;100515.03;;;13.79;100.00
23241;BME280;11789;53.482;9.862;2023-08-07T02:51:13;100504.72;;;13.75;100.00
23241;BME280;11789;53.482;9.862;2023-08-07T02:53:39;100510.81;;;13.74;100.00
23241;BME280;11789;53.482;9.862;2023-08-07T02:56:04;100509.97;;;13.74;100.00
23241;BME280;11789;53.482;9.862;2023-08-07T02:58:30;100511.69;;;13.73;100.00
23241;BME280;11789;53.482;9.862;2023-08-07T03:00:55;100519.50;;;13.72;100.00
23241;BME280;11789;53.482;9.862;2023-08-07T03:03:21;100518.59;;;13.74;100.00
23241;BME280;11789;53.482;9.862;2023-08-07T03:05:50;100528.03;;;13.79;100.00
23241;BME280;11789;53.482;9.862;2023-08-07T03:08:16;100522.84;;;13.80;100.00
23241;BME280;11789;53.482;9.862;2023-08-07T03:10:41;100526.31;;;13.79;100.00
23241;BME280;11789;53.482;9.862;2023-08-07T03:13:07;100521.13;;;13.79;100.00
23241;BME280;11789;53.482;9.862;2023-08-07T03:15:32;100515.03;;;13.79;100.00
23241;BME280;11789;53.482;9.862;2023-08-07T03:17:58;100517.69;;;13.77;100.00
23241;BME280;11789;53.482;9.862;2023-08-07T03:20:23;100521.13;;;13.77;100.00
23241;BME280;11789;53.482;9.862;2023-08-07T03:22:48;100523.81;;;13.74;100.00
23241;BME280;11789;53.482;9.862;2023-08-07T03:25:14;100527.25;;;13.73;100.00
23241;BME280;11789;53.482;9.862;2023-08-07T03:27:39;100527.25;;;13.75;100.00
23241;BME280;11789;53.482;9.862;2023-08-07T03:30:05;100518.53;;;13.77;100.00
23241;BME280;11789;53.482;9.862;2023-08-07T03:32:31;100525.47;;;13.77;100.00
23241;BME280;11789;53.482;9.862;2023-08-07T03:34:56;100519.47;;;13.75;100.00
23241;BME280;11789;53.482;9.862;2023-08-07T03:37:22;100522.91;;;13.75;100.00
23241;BME280;11789;53.482;9.862;2023-08-07T03:39:47;100527.25;;;13.75;100.00
23241;BME280;11789;53.482;9.862;2023-08-07T03:42:13;100525.47;;;13.77;100.00
23241;BME280;11789;53.482;9.862;2023-08-07T03:44:40;100516.81;;;13.76;100.00
23241;BME280;11789;53.482;9.862;2023-08-07T03:47:06;100529.78;;;13.78;100.00
23241;BME280;11789;53.482;9.862;2023-08-07T03:49:31;100527.25;;;13.73;100.00
23241;BME280;11789;53.482;9.862;2023-08-07T03:51:56;100525.63;;;13.69;100.00
23241;BME280;11789;53.482;9.862;2023-08-07T03:54:24;100520.44;;;13.69;100.00
23241;BME280;11789;53.482;9.862;2023-08-07T03:56:50;100523.00;;;13.71;100.00
23241;BME280;11789;53.482;9.862;2023-08-07T03:59:16;100523.00;;;13.71;100.00
23241;BME280;11789;53.482;9.862;2023-08-07T04:01:42;100522.16;;;13.70;100.00
23241;BME280;11789;53.482;9.862;2023-08-07T04:04:08;100525.59;;;13.71;100.00
23241;BME280;11789;53.482;9.862;2023-08-07T04:06:36;100523.88;;;13.70;100.00
23241;BME280;11789;53.482;9.862;2023-08-07T04:09:02;100527.34;;;13.70;100.00
23241;BME280;11789;53.482;9.862;2023-08-07T04:11:30;100523.84;;;13.71;100.00
23241;BME280;11789;53.482;9.862;2023-08-07T04:13:55;100516.91;;;13.72;100.00
23241;BME280;11789;53.482;9.862;2023-08-07T04:16:21;100513.47;;;13.71;100.00
23241;BME280;11789;53.482;9.862;2023-08-07T04:18:47;100521.22;;;13.73;100.00
23241;BME280;11789;53.482;9.862;2023-08-07T04:21:15;100509.94;;;13.75;100.00
23241;BME280;11789;53.482;9.862;2023-08-07T04:23:40;100525.50;;;13.75;100.00
23241;BME280;11789;53.482;9.862;2023-08-07T04:26:06;100519.41;;;13.76;100.00
23241;BME280;11789;53.482;9.862;2023-08-07T04:28:32;100514.25;;;13.75;100.00
23241;BME280;11789;53.482;9.862;2023-08-07T04:30:57;100519.38;;;13.80;100.00
23241;BME280;11789;53.482;9.862;2023-08-07T04:33:22;100518.44;;;13.82;100.00
23241;BME280;11789;53.482;9.862;2023-08-07T04:35:48;100514.09;;;13.84;100.00
23241;BME280;11789;53.482;9.862;2023-08-07T04:38:17;100517.50;;;13.86;100.00
23241;BME280;11789;53.482;9.862;2023-08-07T04:40:46;100520.91;;;13.88;100.00
23241;BME280;11789;53.482;9.862;2023-08-07T04:43:13;100520.06;;;13.89;100.00
23241;BME280;11789;53.482;9.862;2023-08-07T04:45:39;100521.72;;;13.92;100.00
23241;BME280;11789;53.482;9.862;2023-08-07T04:48:07;100527.69;;;13.97;100.00
23241;BME280;11789;53.482;9.862;2023-08-07T04:50:32;100524.22;;;13.96;100.00
23241;BME280;11789;53.482;9.862;2023-08-07T04:52:57;100533.72;;;13.99;100.00
23241;BME280;11789;53.482;9.862;2023-08-07T04:55:23;100521.59;;;13.98;100.00
23241;BME280;11789;53.482;9.862;2023-08-07T04:57:51;100526.81;;;13.96;100.00
23241;BME280;11789;53.482;9.862;2023-08-07T05:00:21;100531.97;;;13.98;100.00
23241;BME280;11789;53.482;9.862;2023-08-07T05:02:46;100528.53;;;13.99;100.00
23241;BME280;11789;53.482;9.862;2023-08-07T05:05:13;100530.22;;;14.00;100.00
23241;BME280;11789;53.482;9.862;2023-08-07T05:07:40;100534.50;;;14.02;100.00
23241;BME280;11789;53.482;9.862;2023-08-07T05:10:06;100537.09;;;14.04;100.00
23241;BME280;11789;53.482;9.862;2023-08-07T05:12:32;100535.34;;;14.05;100.00
23241;BME280;11789;53.482;9.862;2023-08-07T05:14:57;100537.91;;;14.06;100.00
23241;BME280;11789;53.482;9.862;2023-08-07T05:17:23;100531.81;;;14.07;100.00
23241;BME280;11789;53.482;9.862;2023-08-07T05:19:48;100534.38;;;14.09;100.00
23241;BME280;11789;53.482;9.862;2023-08-07T05:22:14;100532.66;;;14.09;100.00
23241;BME280;11789;53.482;9.862;2023-08-07T05:24:40;100531.69;;;14.13;100.00
23241;BME280;11789;53.482;9.862;2023-08-07T05:27:09;100528.22;;;14.14;100.00
23241;BME280;11789;53.482;9.862;2023-08-07T05:29:35;100524.69;;;14.17;100.00
23241;BME280;11789;53.482;9.862;2023-08-07T05:32:12;100528.97;;;14.18;100.00
23241;BME280;11789;53.482;9.862;2023-08-07T05:34:38;100530.69;;;14.19;100.00
23241;BME280;11789;53.482;9.862;2023-08-07T05:37:04;100528.06;;;14.20;100.00
23241;BME280;11789;53.482;9.862;2023-08-07T05:39:30;100528.00;;;14.23;100.00
23241;BME280;11789;53.482;9.862;2023-08-07T05:41:56;100526.25;;;14.24;100.00
23241;BME280;11789;53.482;9.862;2023-08-07T05:44:23;100534.00;;;14.27;100.00
23241;BME280;11789;53.482;9.862;2023-08-07T05:46:49;100529.66;;;14.27;100.00
23241;BME280;11789;53.482;9.862;2023-08-07T05:49:15;100520.09;;;14.30;100.00
23241;BME280;11789;53.482;9.862;2023-08-07T05:51:40;100525.97;;;14.38;100.00
23241;BME280;11789;53.482;9.862;2023-08-07T05:54:06;100525.91;;;14.41;100.00
23241;BME280;11789;53.482;9.862;2023-08-07T05:56:31;100544.06;;;14.42;100.00
23241;BME280;11789;53.482;9.862;2023-08-07T05:58:57;100543.22;;;14.42;100.00
23241;BME280;11789;53.482;9.862;2023-08-07T06:01:22;100537.12;;;14.43;100.00
23241;BME280;11789;53.482;9.862;2023-08-07T06:03:48;100536.25;;;14.42;100.00
23241;BME280;11789;53.482;9.862;2023-08-07T06:06:14;100534.53;;;14.43;100.00
23241;BME280;11789;53.482;9.862;2023-08-07T06:08:39;100537.97;;;14.43;100.00
23241;BME280;11789;53.482;9.862;2023-08-07T06:11:05;100544.00;;;14.45;100.00
23241;BME280;11789;53.482;9.862;2023-08-07T06:13:33;100540.47;;;14.49;100.00
23241;BME280;11789;53.482;9.862;2023-08-07T06:15:59;100542.88;;;14.59;100.00
23241;BME280;11789;53.482;9.862;2023-08-07T06:18:24;100540.12;;;14.65;100.00
23241;BME280;11789;53.482;9.862;2023-08-07T06:20:49;100537.34;;;14.72;100.00
23241;BME280;11789;53.482;9.862;2023-08-07T06:23:16;100545.00;;;14.80;100.00
23241;BME280;11789;53.482;9.862;2023-08-07T06:25:41;100531.94;;;14.82;100.00
23241;BME280;11789;53.482;9.862;2023-08-07T06:28:06;100543.16;;;14.85;100.00
23241;BME280;11789;53.482;9.862;2023-08-07T06:30:32;100541.31;;;14.89;100.00
23241;BME280;11789;53.482;9.862;2023-08-07T06:32:57;100540.34;;;14.93;100.00
23241;BME280;11789;53.482;9.862;2023-08-07T06:35:23;100542.00;;;14.97;100.00
23241;BME280;11789;53.482;9.862;2023-08-07T06:37:48;100530.62;;;14.99;100.00
23241;BME280;11789;53.482;9.862;2023-08-07T06:40:14;100535.78;;;15.02;100.00
23241;BME280;11789;53.482;9.862;2023-08-07T06:42:39;100537.53;;;15.02;100.00
23241;BME280;11789;53.482;9.862;2023-08-07T06:45:05;100535.09;;;14.96;100.00
23241;BME280;11789;53.482;9.862;2023-08-07T06:47:31;100535.16;;;14.93;100.00
23241;BME280;11789;53.482;9.862;2023-08-07T06:50:06;100530.75;;;14.95;100.00
23241;BME280;11789;53.482;9.862;2023-08-07T06:52:32;100534.97;;;15.00;100.00
23241;BME280;11789;53.482;9.862;2023-08-07T06:54:57;100533.88;;;15.09;100.00
23241;BME280;11789;53.482;9.862;2023-08-07T06:57:22;100537.38;;;15.08;100.00
23241;BME280;11789;53.482;9.862;2023-08-07T06:59:48;100549.72;;;15.00;100.00
23241;BME280;11789;53.482;9.862;2023-08-07T07:02:13;100553.41;;;14.91;100.00
23241;BME280;11789;53.482;9.862;2023-08-07T07:04:39;100564.12;;;14.77;100.00
23241;BME280;11789;53.482;9.862;2023-08-07T07:07:04;100565.22;;;14.67;100.00
23241;BME280;11789;53.482;9.862;2023-08-07T07:09:30;100561.06;;;14.59;100.00
23241;BME280;11789;53.482;9.862;2023-08-07T07:11:56;100570.62;;;14.58;100.00
23241;BME280;11789;53.482;9.862;2023-08-07T07:14:22;100572.31;;;14.61;100.00
23241;BME280;11789;53.482;9.862;2023-08-07T07:16:48;100574.00;;;14.63;100.00
23241;BME280;11789;53.482;9.862;2023-08-07T07:19:13;100579.22;;;14.62;100.00
23241;BME280;11789;53.482;9.862;2023-08-07T07:21:39;100577.53;;;14.59;100.00
23241;BME280;11789;53.482;9.862;2023-08-07T07:24:04;100582.87;;;14.53;100.00
23241;BME280;11789;53.482;9.862;2023-08-07T07:26:30;100585.59;;;14.47;100.00
23241;BME280;11789;53.482;9.862;2023-08-07T07:28:56;100581.34;;;14.43;100.00
23241;BME280;11789;53.482;9.862;2023-08-07T07:31:21;100590.97;;;14.38;100.00
23241;BME280;11789;53.482;9.862;2023-08-07T07:33:47;100594.56;;;14.32;100.00
23241;BME280;11789;53.482;9.862;2023-08-07T07:36:17;100589.53;;;14.24;100.00
23241;BME280;11789;53.482;9.862;2023-08-07T07:38:44;100608.81;;;14.14;100.00
23241;BME280;11789;53.482;9.862;2023-08-07T07:41:11;100609.75;;;14.10;100.00
23241;BME280;11789;53.482;9.862;2023-08-07T07:43:37;100604.53;;;14.10;100.00
23241;BME280;11789;53.482;9.862;2023-08-07T07:46:03;100596.63;;;14.16;100.00
23241;BME280;11789;53.482;9.862;2023-08-07T07:48:28;100597.38;;;14.21;100.00
23241;BME280;11789;53.482;9.862;2023-08-07T07:51:03;100602.41;;;14.29;100.00
23241;BME280;11789;53.482;9.862;2023-08-07T07:53:29;100595.28;;;14.39;100.00
23241;BME280;11789;53.482;9.862;2023-08-07T07:56:15;100596.87;;;14.46;100.00
23241;BME280;11789;53.482;9.862;2023-08-07T07:58:40;100593.25;;;14.56;100.00
23241;BME280;11789;53.482;9.862;2023-08-07T08:01:06;100610.56;;;14.57;100.00
23241;BME280;11789;53.482;9.862;2023-08-07T08:03:34;100603.56;;;14.59;100.00
23241;BME280;11789;53.482;9.862;2023-08-07T08:05:59;100616.59;;;14.58;100.00
